sensor_id;sensor_type;location;lat;lon;timestamp;temperature;humidity
17994;DHT22;9122;48.406;9.984;2023-08-17T00:02:57;25.60;92.70
17994;DHT22;9122;48.406;9.984;2023-08-17T00:11:11;25.20;99.90
17994;DHT22;9122;48.406;9.984;2023-08-17T00:46:51;25.00;99.90
17994;DHT22;9122;48.406;9.984;2023-08-17T00:49:36;24.70;99.90
17994;DHT22;9122;48.406;9.984;2023-08-17T00:52:20;24.90;99.90
17994;DHT22;9122;48.406;9.984;2023-08-17T00:55:05;24.80;99.90
17994;DHT22;9122;48.406;9.984;2023-08-17T00:57:51;24.60;99.90
17994;DHT22;9122;48.406;9.984;2023-08-17T01:00:36;24.70;99.90
17994;DHT22;9122;48.406;9.984;2023-08-17T01:03:22;24.50;99.90
17994;DHT22;9122;48.406;9.984;2023-08-17T01:06:07;24.40;99.90
17994;DHT22;9122;48.406;9.984;2023-08-17T01:08:53;24.60;99.90
17994;DHT22;9122;48.406;9.984;2023-08-17T01:11:45;24.60;99.90
17994;DHT22;9122;48.406;9.984;2023-08-17T01:18:21;24.60;99.90
17994;DHT22;9122;48.406;9.984;2023-08-17T01:21:08;24.60;99.90
17994;DHT22;9122;48.406;9.984;2023-08-17T01:23:57;24.50;99.90
17994;DHT22;9122;48.406;9.984;2023-08-17T01:26:43;24.40;99.90
17994;DHT22;9122;48.406;9.984;2023-08-17T01:29:28;24.40;99.90
17994;DHT22;9122;48.406;9.984;2023-08-17T01:32:18;24.30;99.90
17994;DHT22;9122;48.406;9.984;2023-08-17T01:38:40;24.50;99.90
17994;DHT22;9122;48.406;9.984;2023-08-17T01:41:26;24.30;99.90
17994;DHT22;9122;48.406;9.984;2023-08-17T01:44:10;24.40;99.90
17994;DHT22;9122;48.406;9.984;2023-08-17T01:46:55;24.30;99.90
17994;DHT22;9122;48.406;9.984;2023-08-17T01:49:40;24.00;99.90
17994;DHT22;9122;48.406;9.984;2023-08-17T01:52:28;24.20;98.90
17994;DHT22;9122;48.406;9.984;2023-08-17T01:55:13;24.20;99.90
17994;DHT22;9122;48.406;9.984;2023-08-17T01:57:57;24.30;99.90
17994;DHT22;9122;48.406;9.984;2023-08-17T02:00:42;24.30;99.90
17994;DHT22;9122;48.406;9.984;2023-08-17T02:03:26;24.10;99.90
17994;DHT22;9122;48.406;9.984;2023-08-17T02:06:13;24.20;99.90
17994;DHT22;9122;48.406;9.984;2023-08-17T02:08:58;24.00;99.90
17994;DHT22;9122;48.406;9.984;2023-08-17T02:11:42;23.90;99.90
17994;DHT22;9122;48.406;9.984;2023-08-17T02:17:12;23.80;99.90
17994;DHT22;9122;48.406;9.984;2023-08-17T02:19:56;24.10;99.90
17994;DHT22;9122;48.406;9.984;2023-08-17T02:25:25;23.90;99.90
17994;DHT22;9122;48.406;9.984;2023-08-17T02:28:10;23.90;99.90
17994;DHT22;9122;48.406;9.984;2023-08-17T02:30:56;23.80;99.90
17994;DHT22;9122;48.406;9.984;2023-08-17T02:33:40;23.70;99.90
17994;DHT22;9122;48.406;9.984;2023-08-17T02:36:24;23.80;99.90
17994;DHT22;9122;48.406;9.984;2023-08-17T02:39:08;23.80;99.90
17994;DHT22;9122;48.406;9.984;2023-08-17T02:41:56;23.60;99.90
17994;DHT22;9122;48.406;9.984;2023-08-17T02:44:40;23.70;99.90
17994;DHT22;9122;48.406;9.984;2023-08-17T02:47:24;23.70;99.90
17994;DHT22;9122;48.406;9.984;2023-08-17T02:50:09;23.70;99.90
17994;DHT22;9122;48.406;9.984;2023-08-17T02:52:54;23.60;99.90
17994;DHT22;9122;48.406;9.984;2023-08-17T02:55:38;23.40;99.90
17994;DHT22;9122;48.406;9.984;2023-08-17T02:58:22;23.70;99.90
17994;DHT22;9122;48.406;9.984;2023-08-17T03:01:07;23.40;99.90
17994;DHT22;9122;48.406;9.984;2023-08-17T03:06:36;23.50;99.90
17994;DHT22;9122;48.406;9.984;2023-08-17T03:09:20;23.30;99.90
17994;DHT22;9122;48.406;9.984;2023-08-17T03:12:05;23.20;99.90
17994;DHT22;9122;48.406;9.984;2023-08-17T03:14:49;23.30;99.90
17994;DHT22;9122;48.406;9.984;2023-08-17T03:17:33;23.20;99.90
17994;DHT22;9122;48.406;9.984;2023-08-17T03:20:18;23.40;99.90
17994;DHT22;9122;48.406;9.984;2023-08-17T03:23:02;23.30;99.90
17994;DHT22;9122;48.406;9.984;2023-08-17T03:25:53;23.30;99.90
17994;DHT22;9122;48.406;9.984;2023-08-17T03:28:38;23.20;99.90
17994;DHT22;9122;48.406;9.984;2023-08-17T03:31:22;23.10;99.90
17994;DHT22;9122;48.406;9.984;2023-08-17T03:34:07;23.10;99.90
17994;DHT22;9122;48.406;9.984;2023-08-17T03:36:51;23.20;99.90
17994;DHT22;9122;48.406;9.984;2023-08-17T03:39:35;23.10;99.90
17994;DHT22;9122;48.406;9.984;2023-08-17T03:45:04;23.10;99.90
17994;DHT22;9122;48.406;9.984;2023-08-17T03:47:49;23.10;99.90
17994;DHT22;9122;48.406;9.984;2023-08-17T03:50:33;23.00;99.90
17994;DHT22;9122;48.406;9.984;2023-08-17T03:53:17;22.90;99.90
17994;DHT22;9122;48.406;9.984;2023-08-17T03:56:01;22.80;99.90
17994;DHT22;9122;48.406;9.984;2023-08-17T03:58:46;22.90;99.90
17994;DHT22;9122;48.406;9.984;2023-08-17T04:01:30;23.00;99.90
17994;DHT22;9122;48.406;9.984;2023-08-17T04:04:14;22.60;99.90
17994;DHT22;9122;48.406;9.984;2023-08-17T04:06:58;22.80;99.90
17994;DHT22;9122;48.406;9.984;2023-08-17T04:09:44;22.80;99.90
17994;DHT22;9122;48.406;9.984;2023-08-17T04:12:29;22.50;99.90
17994;DHT22;9122;48.406;9.984;2023-08-17T04:15:13;22.80;99.90
17994;DHT22;9122;48.406;9.984;2023-08-17T04:17:57;22.90;99.90
17994;DHT22;9122;48.406;9.984;2023-08-17T04:20:41;22.60;99.90
17994;DHT22;9122;48.406;9.984;2023-08-17T04:23:25;22.60;98.80
17994;DHT22;9122;48.406;9.984;2023-08-17T04:26:09;22.50;99.90
17994;DHT22;9122;48.406;9.984;2023-08-17T04:28:53;22.60;99.90
17994;DHT22;9122;48.406;9.984;2023-08-17T04:31:37;22.60;99.90
17994;DHT22;9122;48.406;9.984;2023-08-17T04:34:21;22.60;99.90
17994;DHT22;9122;48.406;9.984;2023-08-17T04:37:06;22.20;99.90
17994;DHT22;9122;48.406;9.984;2023-08-17T04:39:51;22.30;99.90
17994;DHT22;9122;48.406;9.984;2023-08-17T04:45:19;22.50;99.90
17994;DHT22;9122;48.406;9.984;2023-08-17T04:48:05;22.20;99.90
17994;DHT22;9122;48.406;9.984;2023-08-17T04:50:51;22.30;99.90
17994;DHT22;9122;48.406;9.984;2023-08-17T04:53:35;22.40;99.90
17994;DHT22;9122;48.406;9.984;2023-08-17T04:56:20;22.40;99.90
17994;DHT22;9122;48.406;9.984;2023-08-17T04:59:04;22.40;99.90
17994;DHT22;9122;48.406;9.984;2023-08-17T05:01:48;22.40;99.90
17994;DHT22;9122;48.406;9.984;2023-08-17T05:04:33;22.30;99.70
17994;DHT22;9122;48.406;9.984;2023-08-17T05:10:02;22.50;99.90
17994;DHT22;9122;48.406;9.984;2023-08-17T05:12:47;22.40;99.90
17994;DHT22;9122;48.406;9.984;2023-08-17T05:18:16;22.60;99.90
17994;DHT22;9122;48.406;9.984;2023-08-17T05:21:01;22.40;98.40
17994;DHT22;9122;48.406;9.984;2023-08-17T05:23:45;22.50;99.90
17994;DHT22;9122;48.406;9.984;2023-08-17T05:26:29;22.60;99.90
17994;DHT22;9122;48.406;9.984;2023-08-17T05:29:14;22.50;99.90
17994;DHT22;9122;48.406;9.984;2023-08-17T05:31:59;22.50;99.90
17994;DHT22;9122;48.406;9.984;2023-08-17T05:34:43;22.40;99.90
17994;DHT22;9122;48.406;9.984;2023-08-17T05:37:27;22.60;99.90
17994;DHT22;9122;48.406;9.984;2023-08-17T05:40:11;22.50;99.90
17994;DHT22;9122;48.406;9.984;2023-08-17T05:42:56;22.60;99.90
17994;DHT22;9122;48.406;9.984;2023-08-17T05:48:25;22.70;99.90
17994;DHT22;9122;48.406;9.984;2023-08-17T05:53:54;22.80;99.90
17994;DHT22;9122;48.406;9.984;2023-08-17T05:56:38;22.70;99.90
17994;DHT22;9122;48.406;9.984;2023-08-17T06:04:57;22.90;99.90
17994;DHT22;9122;48.406;9.984;2023-08-17T06:07:42;23.00;99.90
17994;DHT22;9122;48.406;9.984;2023-08-17T06:10:27;23.10;99.90
17994;DHT22;9122;48.406;9.984;2023-08-17T06:13:11;22.90;99.90
17994;DHT22;9122;48.406;9.984;2023-08-17T06:15:58;23.10;99.90
17994;DHT22;9122;48.406;9.984;2023-08-17T06:18:43;23.10;99.90
17994;DHT22;9122;48.406;9.984;2023-08-17T06:21:27;23.20;99.90
17994;DHT22;9122;48.406;9.984;2023-08-17T06:24:11;23.40;99.90
17994;DHT22;9122;48.406;9.984;2023-08-17T06:26:55;23.30;99.90
17994;DHT22;9122;48.406;9.984;2023-08-17T06:29:39;23.50;99.90
17994;DHT22;9122;48.406;9.984;2023-08-17T06:32:23;23.40;99.90
17994;DHT22;9122;48.406;9.984;2023-08-17T06:35:07;23.60;99.90
17994;DHT22;9122;48.406;9.984;2023-08-17T06:37:52;23.70;99.90
17994;DHT22;9122;48.406;9.984;2023-08-17T06:40:40;23.70;99.90
17994;DHT22;9122;48.406;9.984;2023-08-17T06:48:54;24.00;99.90
17994;DHT22;9122;48.406;9.984;2023-08-17T06:51:38;24.00;94.10
17994;DHT22;9122;48.406;9.984;2023-08-17T06:54:23;24.30;99.90
17994;DHT22;9122;48.406;9.984;2023-08-17T06:57:07;24.10;99.90
17994;DHT22;9122;48.406;9.984;2023-08-17T06:59:51;24.10;99.90
17994;DHT22;9122;48.406;9.984;2023-08-17T07:02:35;24.50;99.90
17994;DHT22;9122;48.406;9.984;2023-08-17T07:05:19;24.60;99.90
17994;DHT22;9122;48.406;9.984;2023-08-17T07:08:04;24.70;99.90
17994;DHT22;9122;48.406;9.984;2023-08-17T07:10:49;24.70;99.90
17994;DHT22;9122;48.406;9.984;2023-08-17T07:13:32;24.90;99.90
17994;DHT22;9122;48.406;9.984;2023-08-17T07:16:17;24.90;99.90
17994;DHT22;9122;48.406;9.984;2023-08-17T07:19:02;25.00;99.90
17994;DHT22;9122;48.406;9.984;2023-08-17T07:24:31;25.20;99.90
17994;DHT22;9122;48.406;9.984;2023-08-17T07:30:00;25.20;99.90
17994;DHT22;9122;48.406;9.984;2023-08-17T07:32:44;25.40;99.90
17994;DHT22;9122;48.406;9.984;2023-08-17T07:40:59;25.80;99.90
17994;DHT22;9122;48.406;9.984;2023-08-17T07:43:43;25.80;99.90
17994;DHT22;9122;48.406;9.984;2023-08-17T07:46:27;25.90;99.90
17994;DHT22;9122;48.406;9.984;2023-08-17T07:49:11;25.90;99.90
17994;DHT22;9122;48.406;9.984;2023-08-17T07:51:55;26.10;99.90
17994;DHT22;9122;48.406;9.984;2023-08-17T07:54:39;26.00;99.90
17994;DHT22;9122;48.406;9.984;2023-08-17T07:57:23;26.10;88.80
17994;DHT22;9122;48.406;9.984;2023-08-17T08:00:08;26.20;99.90
17994;DHT22;9122;48.406;9.984;2023-08-17T08:02:52;26.20;99.90
17994;DHT22;9122;48.406;9.984;2023-08-17T08:05:36;26.60;99.90
17994;DHT22;9122;48.406;9.984;2023-08-17T08:08:21;26.40;99.90
17994;DHT22;9122;48.406;9.984;2023-08-17T08:11:06;26.70;99.90
17994;DHT22;9122;48.406;9.984;2023-08-17T08:13:50;26.90;99.90
17994;DHT22;9122;48.406;9.984;2023-08-17T08:16:34;26.90;99.90
17994;DHT22;9122;48.406;9.984;2023-08-17T08:19:19;26.80;99.90
17994;DHT22;9122;48.406;9.984;2023-08-17T08:22:03;27.10;99.90
17994;DHT22;9122;48.406;9.984;2023-08-17T08:24:48;26.80;99.90
17994;DHT22;9122;48.406;9.984;2023-08-17T08:27:32;26.90;99.90
17994;DHT22;9122;48.406;9.984;2023-08-17T08:30:16;26.80;99.90
17994;DHT22;9122;48.406;9.984;2023-08-17T08:33:02;27.00;99.90
17994;DHT22;9122;48.406;9.984;2023-08-17T08:35:47;27.50;99.90
17994;DHT22;9122;48.406;9.984;2023-08-17T08:41:16;27.20;99.90
17994;DHT22;9122;48.406;9.984;2023-08-17T08:44:01;27.30;99.90
17994;DHT22;9122;48.406;9.984;2023-08-17T08:46:46;27.40;99.90
17994;DHT22;9122;48.406;9.984;2023-08-17T08:49:32;27.70;99.90
17994;DHT22;9122;48.406;9.984;2023-08-17T08:52:22;27.80;99.90
17994;DHT22;9122;48.406;9.984;2023-08-17T08:55:18;27.70;99.90
17994;DHT22;9122;48.406;9.984;2023-08-17T08:58:04;27.90;99.90
17994;DHT22;9122;48.406;9.984;2023-08-17T09:00:49;27.90;99.90
17994;DHT22;9122;48.406;9.984;2023-08-17T09:03:34;28.00;99.90
17994;DHT22;9122;48.406;9.984;2023-08-17T09:06:18;28.20;99.90
17994;DHT22;9122;48.406;9.984;2023-08-17T09:09:03;27.90;99.90
17994;DHT22;9122;48.406;9.984;2023-08-17T09:11:48;28.00;99.90
17994;DHT22;9122;48.406;9.984;2023-08-17T09:14:32;28.20;99.90
17994;DHT22;9122;48.406;9.984;2023-08-17T09:17:27;28.40;99.90
17994;DHT22;9122;48.406;9.984;2023-08-17T09:20:12;28.30;99.90
17994;DHT22;9122;48.406;9.984;2023-08-17T09:23:03;28.30;99.90
17994;DHT22;9122;48.406;9.984;2023-08-17T09:25:49;28.40;99.90
17994;DHT22;9122;48.406;9.984;2023-08-17T09:28:38;28.60;99.90
17994;DHT22;9122;48.406;9.984;2023-08-17T09:31:26;28.50;99.90
17994;DHT22;9122;48.406;9.984;2023-08-17T09:34:10;28.60;99.90
17994;DHT22;9122;48.406;9.984;2023-08-17T09:36:55;28.80;80.40
17994;DHT22;9122;48.406;9.984;2023-08-17T09:39:39;28.80;78.00
17994;DHT22;9122;48.406;9.984;2023-08-17T09:42:24;28.80;99.90
17994;DHT22;9122;48.406;9.984;2023-08-17T09:45:09;29.20;99.90
17994;DHT22;9122;48.406;9.984;2023-08-17T09:47:53;29.00;77.30
17994;DHT22;9122;48.406;9.984;2023-08-17T09:53:22;29.20;99.90
17994;DHT22;9122;48.406;9.984;2023-08-17T09:56:06;29.40;99.90
17994;DHT22;9122;48.406;9.984;2023-08-17T09:58:55;29.40;79.10
17994;DHT22;9122;48.406;9.984;2023-08-17T10:01:39;29.50;99.20
17994;DHT22;9122;48.406;9.984;2023-08-17T10:04:26;29.40;77.90
17994;DHT22;9122;48.406;9.984;2023-08-17T10:07:12;29.40;76.30
17994;DHT22;9122;48.406;9.984;2023-08-17T10:10:03;28.70;75.80
17994;DHT22;9122;48.406;9.984;2023-08-17T10:13:21;29.50;75.80
17994;DHT22;9122;48.406;9.984;2023-08-17T10:16:35;29.50;70.50
17994;DHT22;9122;48.406;9.984;2023-08-17T10:22:28;29.70;70.00
17994;DHT22;9122;48.406;9.984;2023-08-17T10:25:15;29.70;98.10
17994;DHT22;9122;48.406;9.984;2023-08-17T10:28:00;30.00;98.90
17994;DHT22;9122;48.406;9.984;2023-08-17T10:30:47;29.80;75.10
17994;DHT22;9122;48.406;9.984;2023-08-17T10:33:32;29.90;73.30
17994;DHT22;9122;48.406;9.984;2023-08-17T10:36:17;29.90;71.30
17994;DHT22;9122;48.406;9.984;2023-08-17T10:39:22;30.10;97.20
17994;DHT22;9122;48.406;9.984;2023-08-17T10:42:06;30.00;74.30
17994;DHT22;9122;48.406;9.984;2023-08-17T10:44:51;30.00;97.20
17994;DHT22;9122;48.406;9.984;2023-08-17T10:47:35;30.10;70.70
17994;DHT22;9122;48.406;9.984;2023-08-17T10:50:22;30.80;74.80
17994;DHT22;9122;48.406;9.984;2023-08-17T10:53:11;30.30;97.60
17994;DHT22;9122;48.406;9.984;2023-08-17T10:55:57;30.30;75.10
17994;DHT22;9122;48.406;9.984;2023-08-17T10:58:43;30.40;74.00
17994;DHT22;9122;48.406;9.984;2023-08-17T11:01:35;30.30;74.50
17994;DHT22;9122;48.406;9.984;2023-08-17T11:04:21;30.50;97.70
17994;DHT22;9122;48.406;9.984;2023-08-17T11:07:13;30.70;71.20
17994;DHT22;9122;48.406;9.984;2023-08-17T11:10:00;30.40;73.10
17994;DHT22;9122;48.406;9.984;2023-08-17T11:12:46;30.40;74.00
17994;DHT22;9122;48.406;9.984;2023-08-17T11:15:37;30.40;71.20
17994;DHT22;9122;48.406;9.984;2023-08-17T11:18:22;30.40;73.80
17994;DHT22;9122;48.406;9.984;2023-08-17T11:21:08;30.50;71.30
17994;DHT22;9122;48.406;9.984;2023-08-17T11:23:55;30.40;74.20
17994;DHT22;9122;48.406;9.984;2023-08-17T11:26:41;30.70;97.00
17994;DHT22;9122;48.406;9.984;2023-08-17T11:29:25;30.70;97.30
17994;DHT22;9122;48.406;9.984;2023-08-17T11:32:10;30.60;96.80
17994;DHT22;9122;48.406;9.984;2023-08-17T11:34:55;30.60;97.70
17994;DHT22;9122;48.406;9.984;2023-08-17T11:37:39;30.60;70.20
17994;DHT22;9122;48.406;9.984;2023-08-17T11:40:25;30.80;97.10
17994;DHT22;9122;48.406;9.984;2023-08-17T11:43:10;30.70;73.30
17994;DHT22;9122;48.406;9.984;2023-08-17T11:45:55;30.50;97.70
17994;DHT22;9122;48.406;9.984;2023-08-17T11:48:40;30.60;74.20
17994;DHT22;9122;48.406;9.984;2023-08-17T11:51:29;30.60;98.20
17994;DHT22;9122;48.406;9.984;2023-08-17T11:54:15;30.70;74.90
17994;DHT22;9122;48.406;9.984;2023-08-17T11:56:59;30.60;97.30
17994;DHT22;9122;48.406;9.984;2023-08-17T11:59:43;30.70;74.30
17994;DHT22;9122;48.406;9.984;2023-08-17T12:02:27;30.80;69.90
17994;DHT22;9122;48.406;9.984;2023-08-17T12:05:12;30.80;72.80
17994;DHT22;9122;48.406;9.984;2023-08-17T12:07:56;30.70;69.80
17994;DHT22;9122;48.406;9.984;2023-08-17T12:10:41;30.80;74.60
17994;DHT22;9122;48.406;9.984;2023-08-17T12:13:35;30.90;98.00
17994;DHT22;9122;48.406;9.984;2023-08-17T12:16:20;30.80;73.00
17994;DHT22;9122;48.406;9.984;2023-08-17T12:19:05;30.80;73.80
17994;DHT22;9122;48.406;9.984;2023-08-17T12:21:49;30.80;97.30
17994;DHT22;9122;48.406;9.984;2023-08-17T12:24:34;30.80;72.60
17994;DHT22;9122;48.406;9.984;2023-08-17T12:27:22;30.90;72.10
17994;DHT22;9122;48.406;9.984;2023-08-17T12:30:28;31.00;72.90
17994;DHT22;9122;48.406;9.984;2023-08-17T12:41:47;31.10;65.20
17994;DHT22;9122;48.406;9.984;2023-08-17T12:44:31;31.20;69.80
17994;DHT22;9122;48.406;9.984;2023-08-17T12:52:47;31.30;64.70
17994;DHT22;9122;48.406;9.984;2023-08-17T12:55:32;31.40;70.30
17994;DHT22;9122;48.406;9.984;2023-08-17T12:58:16;31.50;96.10
17994;DHT22;9122;48.406;9.984;2023-08-17T13:01:01;31.40;67.90
17994;DHT22;9122;48.406;9.984;2023-08-17T13:06:29;31.40;96.30
17994;DHT22;9122;48.406;9.984;2023-08-17T13:09:13;31.30;68.50
17994;DHT22;9122;48.406;9.984;2023-08-17T13:11:58;31.50;95.20
17994;DHT22;9122;48.406;9.984;2023-08-17T13:14:42;31.40;65.50
17994;DHT22;9122;48.406;9.984;2023-08-17T13:17:27;31.40;65.90
17994;DHT22;9122;48.406;9.984;2023-08-17T13:20:11;31.50;64.50
17994;DHT22;9122;48.406;9.984;2023-08-17T13:22:55;31.80;64.20
17994;DHT22;9122;48.406;9.984;2023-08-17T13:28:24;31.60;64.60
17994;DHT22;9122;48.406;9.984;2023-08-17T13:31:09;31.30;63.10
17994;DHT22;9122;48.406;9.984;2023-08-17T13:33:53;31.30;62.10
17994;DHT22;9122;48.406;9.984;2023-08-17T13:36:37;31.10;61.40
17994;DHT22;9122;48.406;9.984;2023-08-17T13:39:22;31.00;61.40
17994;DHT22;9122;48.406;9.984;2023-08-17T13:44:51;30.70;55.90
17994;DHT22;9122;48.406;9.984;2023-08-17T13:47:37;30.70;90.10
17994;DHT22;9122;48.406;9.984;2023-08-17T13:50:22;30.50;55.40
17994;DHT22;9122;48.406;9.984;2023-08-17T13:53:06;30.20;89.70
17994;DHT22;9122;48.406;9.984;2023-08-17T14:04:05;29.70;65.90
17994;DHT22;9122;48.406;9.984;2023-08-17T14:09:36;29.30;94.30
17994;DHT22;9122;48.406;9.984;2023-08-17T14:15:05;29.30;93.80
17994;DHT22;9122;48.406;9.984;2023-08-17T14:17:50;29.00;94.10
17994;DHT22;9122;48.406;9.984;2023-08-17T14:20:34;28.90;94.40
17994;DHT22;9122;48.406;9.984;2023-08-17T14:23:18;29.00;94.30
17994;DHT22;9122;48.406;9.984;2023-08-17T14:26:02;28.60;94.10
17994;DHT22;9122;48.406;9.984;2023-08-17T14:28:47;28.90;94.20
17994;DHT22;9122;48.406;9.984;2023-08-17T14:34:16;28.50;94.00
17994;DHT22;9122;48.406;9.984;2023-08-17T14:37:00;28.30;93.90
17994;DHT22;9122;48.406;9.984;2023-08-17T14:39:44;28.50;93.80
17994;DHT22;9122;48.406;9.984;2023-08-17T14:42:30;28.60;94.70
17994;DHT22;9122;48.406;9.984;2023-08-17T14:45:14;28.40;95.60
17994;DHT22;9122;48.406;9.984;2023-08-17T14:50:44;28.10;96.30
17994;DHT22;9122;48.406;9.984;2023-08-17T14:53:28;28.00;97.00
17994;DHT22;9122;48.406;9.984;2023-08-17T14:56:12;27.80;97.60
17994;DHT22;9122;48.406;9.984;2023-08-17T14:58:56;27.90;97.50
17994;DHT22;9122;48.406;9.984;2023-08-17T15:01:40;27.70;97.90
17994;DHT22;9122;48.406;9.984;2023-08-17T15:09:55;27.60;99.40
17994;DHT22;9122;48.406;9.984;2023-08-17T15:12:39;27.60;97.20
17994;DHT22;9122;48.406;9.984;2023-08-17T15:15:23;27.60;99.90
17994;DHT22;9122;48.406;9.984;2023-08-17T15:18:08;27.40;75.10
17994;DHT22;9122;48.406;9.984;2023-08-17T15:20:52;27.00;99.90
17994;DHT22;9122;48.406;9.984;2023-08-17T15:23:36;27.10;99.90
17994;DHT22;9122;48.406;9.984;2023-08-17T15:26:21;26.90;99.90
17994;DHT22;9122;48.406;9.984;2023-08-17T15:29:06;27.00;99.90
17994;DHT22;9122;48.406;9.984;2023-08-17T15:31:50;27.00;99.90
17994;DHT22;9122;48.406;9.984;2023-08-17T15:34:35;27.00;99.90
17994;DHT22;9122;48.406;9.984;2023-08-17T15:37:19;26.80;99.90
17994;DHT22;9122;48.406;9.984;2023-08-17T15:40:04;26.90;99.90
17994;DHT22;9122;48.406;9.984;2023-08-17T15:42:48;26.80;99.90
17994;DHT22;9122;48.406;9.984;2023-08-17T15:45:33;26.60;99.90
17994;DHT22;9122;48.406;9.984;2023-08-17T15:48:18;26.80;99.90
17994;DHT22;9122;48.406;9.984;2023-08-17T15:51:02;26.80;99.90
17994;DHT22;9122;48.406;9.984;2023-08-17T15:53:47;26.60;99.90
17994;DHT22;9122;48.406;9.984;2023-08-17T15:59:15;26.70;99.90
17994;DHT22;9122;48.406;9.984;2023-08-17T16:02:00;26.40;99.90
17994;DHT22;9122;48.406;9.984;2023-08-17T16:07:30;26.70;87.20
17994;DHT22;9122;48.406;9.984;2023-08-17T16:10:15;26.70;99.90
17994;DHT22;9122;48.406;9.984;2023-08-17T16:12:59;26.50;99.90
17994;DHT22;9122;48.406;9.984;2023-08-17T16:15:44;26.60;99.90
17994;DHT22;9122;48.406;9.984;2023-08-17T16:21:13;26.30;99.90
17994;DHT22;9122;48.406;9.984;2023-08-17T16:23:57;26.50;90.10
17994;DHT22;9122;48.406;9.984;2023-08-17T16:26:42;26.40;99.90
17994;DHT22;9122;48.406;9.984;2023-08-17T16:32:11;26.30;99.90
17994;DHT22;9122;48.406;9.984;2023-08-17T16:34:55;26.30;99.90
17994;DHT22;9122;48.406;9.984;2023-08-17T16:37:39;26.30;99.90
17994;DHT22;9122;48.406;9.984;2023-08-17T16:45:52;26.40;99.90
17994;DHT22;9122;48.406;9.984;2023-08-17T16:48:36;26.20;99.90
17994;DHT22;9122;48.406;9.984;2023-08-17T16:54:05;26.30;99.90
17994;DHT22;9122;48.406;9.984;2023-08-17T16:56:50;26.20;99.90
17994;DHT22;9122;48.406;9.984;2023-08-17T16:59:34;25.90;99.90
17994;DHT22;9122;48.406;9.984;2023-08-17T17:02:19;25.90;99.90
17994;DHT22;9122;48.406;9.984;2023-08-17T17:05:04;26.00;99.90
17994;DHT22;9122;48.406;9.984;2023-08-17T17:07:49;25.90;99.90
17994;DHT22;9122;48.406;9.984;2023-08-17T17:10:33;25.80;99.90
17994;DHT22;9122;48.406;9.984;2023-08-17T17:13:18;25.90;99.90
17994;DHT22;9122;48.406;9.984;2023-08-17T17:18:47;25.80;99.90
17994;DHT22;9122;48.406;9.984;2023-08-17T17:21:31;25.80;99.90
17994;DHT22;9122;48.406;9.984;2023-08-17T17:24:16;25.70;99.90
17994;DHT22;9122;48.406;9.984;2023-08-17T17:27:00;25.70;99.90
17994;DHT22;9122;48.406;9.984;2023-08-17T17:32:29;25.70;99.90
17994;DHT22;9122;48.406;9.984;2023-08-17T17:35:14;25.80;84.50
17994;DHT22;9122;48.406;9.984;2023-08-17T17:40:42;26.00;99.90
17994;DHT22;9122;48.406;9.984;2023-08-17T17:43:26;25.60;99.90
17994;DHT22;9122;48.406;9.984;2023-08-17T17:46:11;25.80;99.90
17994;DHT22;9122;48.406;9.984;2023-08-17T17:48:56;25.80;99.90
17994;DHT22;9122;48.406;9.984;2023-08-17T17:54:24;25.70;99.90
17994;DHT22;9122;48.406;9.984;2023-08-17T17:57:09;25.50;99.90
17994;DHT22;9122;48.406;9.984;2023-08-17T17:59:54;25.50;99.90
17994;DHT22;9122;48.406;9.984;2023-08-17T18:02:39;25.40;90.50
17994;DHT22;9122;48.406;9.984;2023-08-17T18:05:23;25.30;99.90
17994;DHT22;9122;48.406;9.984;2023-08-17T18:08:08;25.30;99.90
17994;DHT22;9122;48.406;9.984;2023-08-17T18:10:52;25.10;99.90
17994;DHT22;9122;48.406;9.984;2023-08-17T18:13:37;25.00;99.90
17994;DHT22;9122;48.406;9.984;2023-08-17T18:16:21;25.10;99.90
17994;DHT22;9122;48.406;9.984;2023-08-17T18:19:06;25.20;99.90
17994;DHT22;9122;48.406;9.984;2023-08-17T18:21:51;25.20;99.90
17994;DHT22;9122;48.406;9.984;2023-08-17T18:24:35;25.00;99.90
17994;DHT22;9122;48.406;9.984;2023-08-17T18:27:20;25.00;99.90
17994;DHT22;9122;48.406;9.984;2023-08-17T18:30:06;24.90;90.30
17994;DHT22;9122;48.406;9.984;2023-08-17T18:32:52;24.90;99.90
17994;DHT22;9122;48.406;9.984;2023-08-17T18:35:36;24.70;99.90
17994;DHT22;9122;48.406;9.984;2023-08-17T18:38:24;24.90;99.90
17994;DHT22;9122;48.406;9.984;2023-08-17T18:41:09;24.90;99.90
17994;DHT22;9122;48.406;9.984;2023-08-17T18:43:54;24.80;99.90
17994;DHT22;9122;48.406;9.984;2023-08-17T18:46:38;24.90;99.90
17994;DHT22;9122;48.406;9.984;2023-08-17T18:52:07;24.70;99.90
17994;DHT22;9122;48.406;9.984;2023-08-17T18:54:59;24.50;99.90
17994;DHT22;9122;48.406;9.984;2023-08-17T18:57:45;24.90;99.90
17994;DHT22;9122;48.406;9.984;2023-08-17T19:00:29;24.50;99.90
17994;DHT22;9122;48.406;9.984;2023-08-17T19:03:13;24.50;99.90
17994;DHT22;9122;48.406;9.984;2023-08-17T19:05:57;24.80;99.90
17994;DHT22;9122;48.406;9.984;2023-08-17T19:08:42;24.50;99.90
17994;DHT22;9122;48.406;9.984;2023-08-17T19:11:26;24.60;99.90
17994;DHT22;9122;48.406;9.984;2023-08-17T19:14:10;24.40;99.90
17994;DHT22;9122;48.406;9.984;2023-08-17T19:16:54;24.60;99.90
17994;DHT22;9122;48.406;9.984;2023-08-17T19:19:40;24.60;99.90
17994;DHT22;9122;48.406;9.984;2023-08-17T19:22:25;24.90;99.90
17994;DHT22;9122;48.406;9.984;2023-08-17T19:25:09;24.40;99.90
17994;DHT22;9122;48.406;9.984;2023-08-17T19:27:54;24.60;99.90
17994;DHT22;9122;48.406;9.984;2023-08-17T19:30:38;24.40;99.90
17994;DHT22;9122;48.406;9.984;2023-08-17T19:33:22;24.10;99.90
17994;DHT22;9122;48.406;9.984;2023-08-17T19:36:06;24.40;99.90
17994;DHT22;9122;48.406;9.984;2023-08-17T19:38:51;24.20;99.90
17994;DHT22;9122;48.406;9.984;2023-08-17T19:41:37;24.00;87.40
17994;DHT22;9122;48.406;9.984;2023-08-17T19:44:21;24.30;99.90
17994;DHT22;9122;48.406;9.984;2023-08-17T19:47:06;23.90;90.20
17994;DHT22;9122;48.406;9.984;2023-08-17T19:49:51;24.10;99.90
17994;DHT22;9122;48.406;9.984;2023-08-17T19:52:36;24.20;91.50
17994;DHT22;9122;48.406;9.984;2023-08-17T19:55:20;24.10;99.90
17994;DHT22;9122;48.406;9.984;2023-08-17T19:58:05;24.10;90.00
17994;DHT22;9122;48.406;9.984;2023-08-17T20:00:50;24.10;99.90
17994;DHT22;9122;48.406;9.984;2023-08-17T20:03:34;24.00;99.90
17994;DHT22;9122;48.406;9.984;2023-08-17T20:06:18;23.90;99.90
17994;DHT22;9122;48.406;9.984;2023-08-17T20:09:03;23.90;90.80
17994;DHT22;9122;48.406;9.984;2023-08-17T20:11:48;23.90;99.90
17994;DHT22;9122;48.406;9.984;2023-08-17T20:14:33;23.80;99.90
17994;DHT22;9122;48.406;9.984;2023-08-17T20:17:19;23.80;99.90
17994;DHT22;9122;48.406;9.984;2023-08-17T20:20:03;23.60;99.90
17994;DHT22;9122;48.406;9.984;2023-08-17T20:22:52;23.60;99.90
17994;DHT22;9122;48.406;9.984;2023-08-17T20:25:36;23.60;99.90
17994;DHT22;9122;48.406;9.984;2023-08-17T20:28:21;23.70;92.50
17994;DHT22;9122;48.406;9.984;2023-08-17T20:31:05;23.70;99.90
17994;DHT22;9122;48.406;9.984;2023-08-17T20:33:51;23.50;92.30
17994;DHT22;9122;48.406;9.984;2023-08-17T20:36:35;23.60;99.90
17994;DHT22;9122;48.406;9.984;2023-08-17T20:39:20;23.60;91.50
17994;DHT22;9122;48.406;9.984;2023-08-17T20:42:08;23.50;99.90